createdAt,value
2017-01-27T00:00:03.286Z,0
2017-01-27T00:05:03.229Z,0
2017-01-27T00:10:03.188Z,0
2017-01-27T00:15:02.884Z,0
2017-01-27T00:20:02.801Z,0
2017-01-27T00:25:02.542Z,0
2017-01-27T00:30:02.469Z,0
2017-01-27T00:35:03.240Z,0
2017-01-27T00:40:03.010Z,0
2017-01-27T00:45:02.822Z,0
2017-01-27T00:50:02.569Z,0
2017-01-27T00:55:03.316Z,0
2017-01-27T01:00:03.008Z,0
2017-01-27T01:05:02.544Z,0
2017-01-27T01:10:03.368Z,0
2017-01-27T01:15:03.080Z,0
2017-01-27T01:20:02.736Z,0
2017-01-27T01:25:02.544Z,0
2017-01-27T01:30:03.266Z,0
2017-01-27T01:35:02.874Z,0
2017-01-27T01:40:02.633Z,0
2017-01-27T01:45:03.396Z,0
2017-01-27T01:50:03.156Z,0
2017-01-27T01:55:02.933Z,0
2017-01-27T02:00:02.891Z,0
2017-01-27T02:05:02.736Z,0
2017-01-27T02:10:02.502Z,0
2017-01-27T02:15:03.312Z,0
2017-01-27T02:20:03.083Z,0
2017-01-27T02:25:02.903Z,0
2017-01-27T02:30:02.710Z,0
2017-01-27T02:35:02.466Z,0
2017-01-27T02:40:03.384Z,0
2017-01-27T02:45:03.072Z,0
2017-01-27T02:50:02.695Z,0
2017-01-27T02:55:02.590Z,0
2017-01-27T03:00:03.443Z,0
2017-01-27T03:05:03.023Z,0
2017-01-27T03:10:02.867Z,0
2017-01-27T03:15:02.572Z,0
2017-01-27T03:20:03.276Z,0
2017-01-27T03:25:03.020Z,0
2017-01-27T03:30:02.760Z,0
2017-01-27T03:35:02.473Z,0
2017-01-27T03:40:03.257Z,0
2017-01-27T03:45:02.857Z,0
2017-01-27T03:50:02.585Z,0
2017-01-27T03:55:03.360Z,0
2017-01-27T04:00:03.152Z,0
2017-01-27T04:05:03.052Z,0
2017-01-27T04:10:02.816Z,0
2017-01-27T04:15:02.672Z,0
2017-01-27T04:20:03.424Z,0
2017-01-27T04:25:03.197Z,0
2017-01-27T04:30:02.890Z,0
2017-01-27T04:35:02.771Z,0
2017-01-27T04:40:02.742Z,0
2017-01-27T04:45:02.511Z,0
2017-01-27T04:50:03.265Z,0
2017-01-27T04:55:02.760Z,0
2017-01-27T05:00:02.515Z,0
2017-01-27T05:05:03.239Z,0
2017-01-27T05:10:03.179Z,0
2017-01-27T05:15:02.929Z,0
2017-01-27T05:20:17.547Z,0
2017-01-27T05:25:03.153Z,0
2017-01-27T05:30:02.985Z,0
2017-01-27T05:35:02.804Z,0
2017-01-27T05:40:02.578Z,0
2017-01-27T05:45:03.231Z,0
2017-01-27T05:50:02.806Z,0
2017-01-27T05:55:02.575Z,0
2017-01-27T06:00:02.490Z,0
2017-01-27T06:05:03.052Z,0
2017-01-27T06:10:03.003Z,0
2017-01-27T06:15:02.661Z,0
2017-01-27T06:20:02.554Z,0
2017-01-27T06:25:03.225Z,0
2017-01-27T06:30:03.014Z,0
2017-01-27T06:35:02.674Z,0
2017-01-27T06:40:03.353Z,0
2017-01-27T06:45:03.145Z,2
2017-01-27T06:50:02.722Z,6
2017-01-27T06:55:02.697Z,14
2017-01-27T07:00:02.549Z,28
2017-01-27T07:05:02.470Z,40
2017-01-27T07:10:03.377Z,56
2017-01-27T07:15:02.970Z,90
2017-01-27T07:20:02.923Z,119
2017-01-27T07:25:02.645Z,198
2017-01-27T07:30:02.501Z,319
2017-01-27T07:35:03.032Z,421
2017-01-27T07:40:02.829Z,477
2017-01-27T07:45:02.464Z,583
2017-01-27T07:50:03.144Z,706
2017-01-27T07:55:02.958Z,851
2017-01-27T08:00:02.754Z,1000
2017-01-27T08:05:02.457Z,1000
2017-01-27T08:10:03.398Z,1000
2017-01-27T08:15:03.011Z,1000
2017-01-27T08:20:02.705Z,2000
2017-01-27T08:25:02.544Z,2000
2017-01-27T08:30:03.243Z,2000
2017-01-27T08:35:02.824Z,3000
2017-01-27T08:40:02.647Z,3000
2017-01-27T08:45:03.328Z,4000
2017-01-27T08:50:02.904Z,4000
2017-01-27T08:55:02.644Z,4000
2017-01-27T09:00:03.190Z,5000
2017-01-27T09:05:02.812Z,5000
2017-01-27T09:10:02.773Z,5000
2017-01-27T09:15:02.492Z,6000
2017-01-27T09:20:03.125Z,10000
2017-01-27T09:25:02.835Z,10000
2017-01-27T09:30:02.759Z,11000
2017-01-27T09:35:03.374Z,13000
2017-01-27T09:40:03.188Z,14000
2017-01-27T09:45:03.246Z,15000
2017-01-27T09:50:02.950Z,15000
2017-01-27T09:55:02.516Z,20000
2017-01-27T10:00:02.496Z,17000
2017-01-27T10:05:03.196Z,22000
2017-01-27T10:10:03.355Z,21000
2017-01-27T10:15:03.412Z,22000
2017-01-27T10:20:03.401Z,29000
2017-01-27T10:25:02.653Z,18000
2017-01-27T10:30:02.659Z,26000
2017-01-27T10:35:02.752Z,26000
2017-01-27T10:40:03.049Z,21000
2017-01-27T10:45:02.684Z,26000
2017-01-27T10:50:03.352Z,19000
2017-01-27T10:55:03.112Z,16000
2017-01-27T11:00:02.940Z,29000
2017-01-27T11:05:02.945Z,28000
2017-01-27T11:10:03.033Z,33000
2017-01-27T11:15:02.789Z,32000
2017-01-27T11:20:02.614Z,32000
2017-01-27T11:25:03.341Z,30000
2017-01-27T11:30:03.012Z,25000
2017-01-27T11:35:03.105Z,31000
2017-01-27T11:40:02.494Z,28000
2017-01-27T11:45:02.698Z,30000
2017-01-27T11:50:02.824Z,17000
2017-01-27T11:55:02.741Z,17000
2017-01-27T12:00:02.801Z,15000
2017-01-27T12:05:02.628Z,11000
2017-01-27T12:10:02.529Z,18000
2017-01-27T12:15:02.554Z,12000
2017-01-27T12:20:02.532Z,8000
2017-01-27T12:25:02.567Z,12000
2017-01-27T12:30:02.583Z,8000
2017-01-27T12:35:03.316Z,6000
2017-01-27T12:40:03.317Z,7000
2017-01-27T12:45:03.110Z,8000
2017-01-27T12:50:03.166Z,9000
2017-01-27T12:55:03.137Z,8000
2017-01-27T13:00:03.143Z,6000
2017-01-27T13:05:03.099Z,6000
2017-01-27T13:10:03.165Z,6000
2017-01-27T13:15:03.357Z,6000
2017-01-27T13:20:03.370Z,6000
2017-01-27T13:25:03.204Z,6000
2017-01-27T13:30:03.160Z,6000
2017-01-27T13:35:03.221Z,6000
2017-01-27T13:40:03.139Z,6000
2017-01-27T13:45:03.336Z,6000
2017-01-27T13:50:03.399Z,5000
2017-01-27T13:55:03.425Z,5000
2017-01-27T14:00:03.030Z,5000
2017-01-27T14:05:02.973Z,4000
2017-01-27T14:10:03.376Z,4000
2017-01-27T14:15:03.452Z,4000
2017-01-27T14:20:02.478Z,4000
2017-01-27T14:25:02.604Z,4000
2017-01-27T14:30:03.401Z,4000
2017-01-27T14:35:03.308Z,3000
2017-01-27T14:40:02.818Z,3000
2017-01-27T14:45:02.994Z,2000
2017-01-27T14:50:02.915Z,3000
2017-01-27T14:55:03.319Z,3000
2017-01-27T15:00:03.388Z,2000
2017-01-27T15:05:03.314Z,2000
2017-01-27T15:10:02.474Z,2000
2017-01-27T15:15:03.280Z,1000
2017-01-27T15:20:03.201Z,1000
2017-01-27T15:25:02.590Z,1000
2017-01-27T15:30:02.597Z,1000
2017-01-27T15:35:02.777Z,892
2017-01-27T15:40:02.729Z,761
2017-01-27T15:45:02.707Z,654
2017-01-27T15:50:03.004Z,523
2017-01-27T15:55:02.955Z,411
2017-01-27T16:00:02.847Z,301
2017-01-27T16:05:02.627Z,101
2017-01-27T16:10:02.889Z,81
2017-01-27T16:15:03.038Z,65
2017-01-27T16:20:03.200Z,58
2017-01-27T16:25:03.347Z,44
2017-01-27T16:30:03.017Z,32
2017-01-27T16:35:03.031Z,19
2017-01-27T16:40:03.464Z,8
2017-01-27T16:45:02.503Z,3
2017-01-27T16:50:03.355Z,1
2017-01-27T16:55:03.245Z,0
2017-01-27T17:00:02.940Z,0
2017-01-27T17:05:02.686Z,0
2017-01-27T17:10:02.718Z,0
2017-01-27T17:15:03.011Z,0
2017-01-27T17:20:02.634Z,0
2017-01-27T17:25:02.485Z,0
2017-01-27T17:30:03.306Z,0
2017-01-27T17:35:03.103Z,0
2017-01-27T17:40:03.312Z,0
2017-01-27T17:45:03.316Z,0
2017-01-27T17:50:02.573Z,0
2017-01-27T17:55:03.446Z,0
2017-01-27T18:00:03.032Z,0
2017-01-27T18:05:02.867Z,0
2017-01-27T18:10:02.636Z,0
2017-01-27T18:15:03.261Z,0
2017-01-27T18:20:03.099Z,0
2017-01-27T18:25:02.896Z,0
2017-01-27T18:30:02.631Z,0
2017-01-27T18:35:02.581Z,0
2017-01-27T18:40:03.257Z,0
2017-01-27T18:45:03.076Z,0
2017-01-27T18:50:02.708Z,0
2017-01-27T18:55:02.599Z,0
2017-01-27T19:00:02.530Z,0
2017-01-27T19:05:02.490Z,0
2017-01-27T19:10:03.203Z,0
2017-01-27T19:15:03.195Z,0
2017-01-27T19:20:03.286Z,0
2017-01-27T19:25:03.069Z,0
2017-01-27T19:30:03.162Z,0
2017-01-27T19:35:03.386Z,0
2017-01-27T19:40:03.384Z,0
2017-01-27T19:45:03.152Z,0
2017-01-27T19:50:02.975Z,0
2017-01-27T19:55:02.943Z,0
2017-01-27T20:00:02.985Z,0
2017-01-27T20:05:02.648Z,0
2017-01-27T20:10:02.577Z,0
2017-01-27T20:15:02.636Z,0
2017-01-27T20:20:03.423Z,0
2017-01-27T20:25:03.052Z,0
2017-01-27T20:30:03.014Z,0
2017-01-27T20:35:02.739Z,0
2017-01-27T20:40:02.784Z,0
2017-01-27T20:45:02.564Z,0
2017-01-27T20:50:03.201Z,0
2017-01-27T20:55:03.050Z,0
2017-01-27T21:00:02.814Z,0
2017-01-27T21:05:02.751Z,0
2017-01-27T21:10:02.636Z,0
2017-01-27T21:15:03.368Z,0
2017-01-27T21:20:03.120Z,0
2017-01-27T21:25:03.135Z,0
2017-01-27T21:30:03.066Z,0
2017-01-27T21:35:02.643Z,0
2017-01-27T21:40:02.556Z,0
2017-01-27T21:45:03.389Z,0
2017-01-27T21:50:02.567Z,0
2017-01-27T21:55:03.293Z,0
2017-01-27T22:00:03.299Z,0
2017-01-27T22:05:03.121Z,0
2017-01-27T22:10:02.856Z,0
2017-01-27T22:15:02.668Z,0
2017-01-27T22:20:02.525Z,0
2017-01-27T22:25:03.112Z,0
2017-01-27T22:30:03.006Z,0
2017-01-27T22:35:02.829Z,0
2017-01-27T22:40:02.718Z,0
2017-01-27T22:45:03.436Z,0
2017-01-27T22:50:03.011Z,0
2017-01-27T22:55:02.646Z,0
2017-01-27T23:00:02.537Z,0
2017-01-27T23:05:03.468Z,0
2017-01-27T23:10:03.320Z,0
2017-01-27T23:15:03.100Z,0
2017-01-27T23:20:02.827Z,0
2017-01-27T23:25:02.874Z,0
2017-01-27T23:30:02.500Z,0
2017-01-27T23:35:03.251Z,0
2017-01-27T23:40:02.892Z,0
2017-01-27T23:45:02.528Z,0
2017-01-27T23:50:03.456Z,0
2017-01-27T23:55:03.230Z,0
